createdAt,value
2019-01-29T00:00:04.581Z,0.00
2019-01-29T00:01:04.569Z,0.00
2019-01-29T00:02:04.562Z,0.00
2019-01-29T00:03:04.550Z,0.00
2019-01-29T00:04:04.542Z,0.00
2019-01-29T00:05:04.531Z,0.00
2019-01-29T00:06:04.522Z,0.00
2019-01-29T00:07:04.595Z,0.00
2019-01-29T00:08:04.502Z,0.00
2019-01-29T00:09:04.492Z,0.00
2019-01-29T00:10:04.481Z,0.00
2019-01-29T00:11:04.466Z,0.00
2019-01-29T00:12:04.460Z,0.00
2019-01-29T00:13:04.450Z,0.00
2019-01-29T00:14:04.443Z,0.00
2019-01-29T00:15:04.430Z,0.00
2019-01-29T00:16:04.529Z,0.00
2019-01-29T00:17:04.412Z,0.00
2019-01-29T00:18:04.499Z,0.00
2019-01-29T00:19:04.390Z,0.00
2019-01-29T00:20:04.378Z,0.00
2019-01-29T00:21:04.372Z,0.00
2019-01-29T00:22:04.360Z,0.00
2019-01-29T00:23:04.349Z,0.00
2019-01-29T00:24:04.339Z,0.00
2019-01-29T00:25:04.327Z,0.00
2019-01-29T00:26:04.319Z,0.00
2019-01-29T00:27:04.311Z,0.00
2019-01-29T00:28:04.297Z,0.00
2019-01-29T00:29:04.290Z,0.00
2019-01-29T00:30:04.279Z,0.00
2019-01-29T00:31:04.267Z,0.00
2019-01-29T00:32:04.256Z,0.00
2019-01-29T00:33:04.248Z,0.00
2019-01-29T00:34:04.234Z,0.00
2019-01-29T00:35:04.228Z,0.00
2019-01-29T00:36:04.211Z,0.00
2019-01-29T00:37:04.205Z,0.00
2019-01-29T00:38:04.196Z,0.00
2019-01-29T00:39:04.184Z,0.00
2019-01-29T00:40:04.175Z,0.00
2019-01-29T00:41:04.169Z,0.00
2019-01-29T00:42:04.157Z,0.00
2019-01-29T00:43:04.142Z,0.00
2019-01-29T00:44:04.136Z,0.00
2019-01-29T00:45:04.124Z,0.00
2019-01-29T00:46:04.121Z,0.00
2019-01-29T00:47:04.103Z,0.00
2019-01-29T00:48:04.088Z,0.00
2019-01-29T00:49:04.083Z,0.00
2019-01-29T00:50:04.082Z,0.00
2019-01-29T00:51:04.061Z,0.00
2019-01-29T00:52:04.051Z,0.00
2019-01-29T00:53:04.039Z,0.00
2019-01-29T00:54:04.031Z,0.00
2019-01-29T00:55:04.020Z,0.00
2019-01-29T00:56:04.011Z,0.00
2019-01-29T00:57:03.999Z,0.00
2019-01-29T00:58:03.992Z,0.00
2019-01-29T00:59:03.980Z,0.00
2019-01-29T01:00:03.967Z,0.00
2019-01-29T01:01:03.959Z,0.00
2019-01-29T01:02:03.947Z,0.00
2019-01-29T01:03:03.935Z,0.00
2019-01-29T01:04:03.926Z,0.00
2019-01-29T01:05:03.917Z,0.00
2019-01-29T01:06:03.908Z,0.00
2019-01-29T01:07:03.895Z,0.00
2019-01-29T01:08:03.884Z,0.00
2019-01-29T01:09:03.888Z,0.00
2019-01-29T01:10:03.866Z,0.00
2019-01-29T01:11:03.851Z,0.00
2019-01-29T01:12:03.841Z,0.00
2019-01-29T01:13:03.832Z,0.00
2019-01-29T01:14:03.820Z,0.00
2019-01-29T01:15:03.811Z,0.00
2019-01-29T01:16:03.799Z,0.00
2019-01-29T01:17:03.789Z,0.00
2019-01-29T01:18:03.779Z,0.00
2019-01-29T01:19:03.776Z,0.00
2019-01-29T01:20:03.759Z,0.00
2019-01-29T01:21:03.746Z,0.00
2019-01-29T01:22:03.736Z,0.00
2019-01-29T01:23:03.726Z,0.00
2019-01-29T01:24:03.714Z,0.00
2019-01-29T01:25:03.703Z,0.00
2019-01-29T01:26:03.694Z,0.00
2019-01-29T01:27:03.684Z,0.00
2019-01-29T01:28:03.670Z,0.00
2019-01-29T01:29:03.662Z,0.00
2019-01-29T01:30:03.656Z,0.00
2019-01-29T01:31:03.644Z,0.00
2019-01-29T01:32:03.629Z,0.00
2019-01-29T01:33:03.621Z,0.00
2019-01-29T01:34:03.608Z,0.00
2019-01-29T01:35:03.597Z,0.00
2019-01-29T01:36:03.596Z,0.00
2019-01-29T01:37:03.575Z,0.00
2019-01-29T01:38:03.565Z,0.00
2019-01-29T01:39:03.558Z,0.00
2019-01-29T01:40:03.544Z,0.00
2019-01-29T01:41:03.533Z,0.00
2019-01-29T01:42:03.528Z,0.00
2019-01-29T01:43:03.511Z,0.00
2019-01-29T01:44:03.500Z,0.00
2019-01-29T01:45:03.492Z,0.00
2019-01-29T01:46:03.480Z,0.00
2019-01-29T01:47:03.469Z,0.00
2019-01-29T01:48:03.460Z,0.00
2019-01-29T01:49:03.446Z,0.00
2019-01-29T01:50:03.438Z,0.00
2019-01-29T01:51:03.429Z,0.00
2019-01-29T01:52:03.417Z,0.00
2019-01-29T01:53:03.404Z,0.00
2019-01-29T01:54:03.396Z,0.00
2019-01-29T01:55:03.378Z,0.00
2019-01-29T01:56:03.368Z,0.00
2019-01-29T01:57:03.360Z,0.00
2019-01-29T01:58:03.352Z,0.00
2019-01-29T01:59:03.340Z,0.00
2019-01-29T02:00:03.328Z,0.00
2019-01-29T02:01:03.316Z,0.00
2019-01-29T02:02:03.326Z,0.00
2019-01-29T02:03:03.291Z,0.00
2019-01-29T02:04:03.288Z,0.00
2019-01-29T02:05:03.277Z,0.00
2019-01-29T02:06:03.262Z,0.00
2019-01-29T02:07:03.251Z,0.00
2019-01-29T02:08:03.239Z,0.00
2019-01-29T02:09:03.230Z,0.00
2019-01-29T02:10:03.216Z,0.00
2019-01-29T02:11:03.207Z,0.00
2019-01-29T02:12:03.200Z,0.00
2019-01-29T02:13:03.185Z,0.00
2019-01-29T02:14:03.171Z,0.00
2019-01-29T02:15:03.170Z,0.00
2019-01-29T02:16:03.152Z,0.00
2019-01-29T02:17:03.141Z,0.00
2019-01-29T02:18:03.132Z,0.00
2019-01-29T02:19:03.119Z,0.00
2019-01-29T02:20:03.112Z,0.00
2019-01-29T02:21:03.096Z,0.00
2019-01-29T02:22:03.086Z,0.00
2019-01-29T02:23:08.235Z,0.00
2019-01-29T02:24:03.064Z,0.00
2019-01-29T02:25:03.052Z,0.00
2019-01-29T02:26:03.041Z,0.00
2019-01-29T02:27:03.095Z,0.00
2019-01-29T02:28:03.019Z,0.00
2019-01-29T02:29:03.010Z,0.00
2019-01-29T02:30:02.997Z,0.00
2019-01-29T02:31:02.985Z,0.00
2019-01-29T02:32:02.975Z,0.00
2019-01-29T02:33:02.963Z,0.00
2019-01-29T02:34:02.954Z,0.00
2019-01-29T02:35:02.941Z,0.00
2019-01-29T02:36:02.933Z,0.00
2019-01-29T02:37:02.920Z,0.00
2019-01-29T02:38:02.909Z,0.00
2019-01-29T02:39:02.897Z,0.00
2019-01-29T02:40:02.887Z,0.00
2019-01-29T02:41:02.878Z,0.00
2019-01-29T02:42:02.864Z,0.00
2019-01-29T02:43:02.851Z,0.00
2019-01-29T02:44:02.847Z,0.00
2019-01-29T02:45:02.830Z,0.00
2019-01-29T02:46:02.821Z,0.00
2019-01-29T02:47:02.820Z,0.00
2019-01-29T02:48:02.798Z,0.00
2019-01-29T02:49:02.786Z,0.00
2019-01-29T02:50:02.777Z,0.00
2019-01-29T02:51:02.765Z,0.00
2019-01-29T02:52:02.755Z,0.00
2019-01-29T02:53:02.742Z,0.00
2019-01-29T02:54:02.733Z,0.00
2019-01-29T02:55:02.723Z,0.00
2019-01-29T02:56:02.707Z,0.00
2019-01-29T02:57:02.698Z,0.00
2019-01-29T02:58:02.684Z,0.00
2019-01-29T02:59:02.674Z,0.00
2019-01-29T03:00:02.663Z,0.00
2019-01-29T03:01:02.653Z,0.00
2019-01-29T03:02:02.640Z,0.00
2019-01-29T03:03:02.629Z,0.00
2019-01-29T03:04:02.617Z,0.00
2019-01-29T03:05:02.609Z,0.00
2019-01-29T03:06:02.598Z,0.00
2019-01-29T03:07:02.588Z,0.00
2019-01-29T03:08:02.574Z,0.00
2019-01-29T03:09:02.560Z,0.00
2019-01-29T03:10:02.552Z,0.00
2019-01-29T03:11:02.562Z,0.00
2019-01-29T03:12:02.530Z,0.00
2019-01-29T03:13:02.517Z,0.00
2019-01-29T03:14:02.503Z,0.00
2019-01-29T03:15:02.493Z,0.00
2019-01-29T03:16:02.481Z,0.00
2019-01-29T03:17:02.481Z,0.00
2019-01-29T03:18:02.464Z,0.00
2019-01-29T03:19:02.447Z,0.00
2019-01-29T03:20:02.436Z,0.00
2019-01-29T03:21:02.438Z,0.00
2019-01-29T03:22:02.416Z,0.00
2019-01-29T03:23:02.404Z,0.00
2019-01-29T03:24:02.392Z,0.00
2019-01-29T03:25:02.379Z,0.00
2019-01-29T03:26:02.375Z,0.00
2019-01-29T03:27:02.357Z,0.00
2019-01-29T03:28:02.347Z,0.00
2019-01-29T03:29:02.338Z,0.00
2019-01-29T03:30:02.329Z,0.00
2019-01-29T03:31:02.330Z,0.00
2019-01-29T03:32:02.300Z,0.00
2019-01-29T03:33:02.293Z,0.00
2019-01-29T03:34:02.280Z,0.00
2019-01-29T03:35:02.413Z,0.00
2019-01-29T03:36:02.255Z,0.00
2019-01-29T03:37:02.281Z,0.00
2019-01-29T03:38:02.232Z,0.00
2019-01-29T03:39:02.217Z,0.00
2019-01-29T03:40:02.222Z,0.00
2019-01-29T03:41:02.200Z,0.00
2019-01-29T03:42:02.183Z,0.00
2019-01-29T03:43:02.178Z,0.00
2019-01-29T03:44:02.160Z,0.00
2019-01-29T03:45:02.150Z,0.00
2019-01-29T03:46:02.138Z,0.00
2019-01-29T03:47:02.131Z,0.00
2019-01-29T03:48:02.116Z,0.00
2019-01-29T03:49:02.105Z,0.00
2019-01-29T03:50:02.090Z,0.00
2019-01-29T03:51:02.093Z,0.00
2019-01-29T03:52:02.067Z,0.00
2019-01-29T03:53:02.050Z,0.00
2019-01-29T03:54:02.045Z,0.00
2019-01-29T03:55:02.031Z,0.00
2019-01-29T03:56:02.025Z,0.00
2019-01-29T03:57:02.009Z,0.00
2019-01-29T03:58:01.998Z,0.00
2019-01-29T03:59:01.986Z,0.00
2019-01-29T04:00:01.978Z,0.00
2019-01-29T04:01:01.978Z,0.00
2019-01-29T04:02:01.951Z,0.00
2019-01-29T04:03:01.939Z,0.00
2019-01-29T04:04:01.931Z,0.00
2019-01-29T04:05:01.924Z,0.00
2019-01-29T04:06:01.905Z,0.00
2019-01-29T04:07:01.892Z,0.00
2019-01-29T04:08:01.881Z,0.00
2019-01-29T04:09:01.876Z,0.00
2019-01-29T04:10:01.858Z,0.00
2019-01-29T04:11:01.843Z,0.00
2019-01-29T04:12:01.835Z,0.00
2019-01-29T04:13:01.826Z,0.00
2019-01-29T04:14:01.810Z,0.00
2019-01-29T04:15:01.798Z,0.00
2019-01-29T04:16:01.786Z,0.00
2019-01-29T04:17:01.778Z,0.00
2019-01-29T04:18:01.769Z,0.00
2019-01-29T04:19:01.756Z,0.00
2019-01-29T04:20:01.740Z,0.00
2019-01-29T04:21:01.729Z,0.00
2019-01-29T04:22:01.719Z,0.00
2019-01-29T04:23:01.721Z,0.00
2019-01-29T04:24:01.694Z,0.00
2019-01-29T04:25:01.693Z,0.00
2019-01-29T04:26:01.678Z,0.00
2019-01-29T04:27:01.657Z,0.00
2019-01-29T04:28:01.646Z,0.00
2019-01-29T04:29:01.635Z,0.00
2019-01-29T04:30:01.624Z,0.00
2019-01-29T04:31:01.612Z,0.00
2019-01-29T04:32:01.618Z,0.00
2019-01-29T04:33:01.590Z,0.00
2019-01-29T04:34:01.574Z,0.00
2019-01-29T04:35:01.566Z,0.00
2019-01-29T04:36:01.551Z,0.00
2019-01-29T04:37:01.542Z,0.00
2019-01-29T04:38:01.529Z,0.00
2019-01-29T04:39:01.515Z,0.00
2019-01-29T04:40:01.507Z,0.00
2019-01-29T04:41:01.497Z,0.00
2019-01-29T04:42:01.485Z,0.00
2019-01-29T04:43:01.470Z,0.00
2019-01-29T04:44:01.460Z,0.00
2019-01-29T04:45:01.445Z,0.00
2019-01-29T04:46:01.434Z,0.00
2019-01-29T04:47:01.423Z,0.00
2019-01-29T04:48:01.411Z,0.00
2019-01-29T04:49:01.400Z,0.00
2019-01-29T04:50:01.394Z,0.00
2019-01-29T04:51:01.373Z,0.00
2019-01-29T04:52:01.364Z,0.00
2019-01-29T04:53:01.353Z,0.00
2019-01-29T04:54:01.344Z,0.00
2019-01-29T04:55:01.329Z,0.00
2019-01-29T04:56:01.317Z,0.00
2019-01-29T04:57:01.304Z,0.00
2019-01-29T04:58:01.292Z,0.00
2019-01-29T04:59:01.283Z,0.00
2019-01-29T05:00:01.274Z,0.00
2019-01-29T05:01:01.261Z,0.00
2019-01-29T05:02:01.247Z,0.00
2019-01-29T05:03:01.239Z,0.00
2019-01-29T05:04:01.222Z,0.00
2019-01-29T05:05:01.217Z,0.00
2019-01-29T05:06:01.201Z,0.00
2019-01-29T05:07:01.190Z,0.00
2019-01-29T05:08:01.181Z,0.00
2019-01-29T05:09:01.166Z,0.00
2019-01-29T05:10:01.153Z,0.00
2019-01-29T05:11:01.152Z,0.00
2019-01-29T05:12:01.134Z,0.00
2019-01-29T05:13:01.117Z,0.00
2019-01-29T05:14:01.108Z,0.00
2019-01-29T05:15:01.103Z,0.00
2019-01-29T05:16:01.087Z,0.00
2019-01-29T05:17:01.077Z,0.00
2019-01-29T05:18:01.065Z,0.00
2019-01-29T05:19:01.042Z,0.00
2019-01-29T05:20:01.038Z,0.00
2019-01-29T05:21:01.022Z,0.00
2019-01-29T05:22:01.012Z,0.00
2019-01-29T05:23:01.000Z,0.00
2019-01-29T05:24:06.592Z,0.00
2019-01-29T05:25:01.074Z,0.00
2019-01-29T05:26:00.967Z,0.00
2019-01-29T05:27:00.951Z,0.00
2019-01-29T05:28:00.943Z,0.00
2019-01-29T05:29:00.928Z,0.00
2019-01-29T05:30:00.922Z,0.00
2019-01-29T05:31:00.905Z,0.00
2019-01-29T05:32:00.894Z,0.00
2019-01-29T05:33:00.882Z,0.00
2019-01-29T05:34:00.868Z,0.00
2019-01-29T05:35:00.860Z,0.00
2019-01-29T05:36:00.844Z,0.00
2019-01-29T05:37:00.834Z,0.00
2019-01-29T05:38:00.840Z,0.00
2019-01-29T05:39:00.815Z,0.00
2019-01-29T05:40:00.799Z,0.00
2019-01-29T05:41:00.785Z,0.00
2019-01-29T05:42:00.777Z,0.00
2019-01-29T05:43:00.762Z,0.00
2019-01-29T05:44:00.764Z,0.00
2019-01-29T05:45:00.740Z,0.00
2019-01-29T05:46:00.726Z,0.00
2019-01-29T05:47:00.717Z,0.00
2019-01-29T05:48:00.700Z,0.00
2019-01-29T05:49:00.690Z,0.00
2019-01-29T05:50:00.678Z,0.00
2019-01-29T05:51:00.672Z,0.00
2019-01-29T05:52:00.652Z,0.00
2019-01-29T05:53:00.640Z,0.00
2019-01-29T05:54:00.628Z,0.00
2019-01-29T05:55:00.620Z,0.00
2019-01-29T05:56:00.609Z,0.00
2019-01-29T05:57:00.589Z,0.00
2019-01-29T05:58:00.581Z,0.00
2019-01-29T05:59:00.567Z,0.00
2019-01-29T06:00:00.555Z,0.00
2019-01-29T06:01:00.545Z,0.00
2019-01-29T06:02:00.535Z,0.00
2019-01-29T06:03:00.518Z,0.00
2019-01-29T06:04:00.506Z,0.00
2019-01-29T06:05:00.494Z,0.00
2019-01-29T06:06:00.483Z,0.00
2019-01-29T06:07:00.468Z,0.00
2019-01-29T06:08:00.458Z,0.00
2019-01-29T06:09:00.448Z,0.00
2019-01-29T06:10:00.431Z,0.00
2019-01-29T06:11:00.421Z,0.00
2019-01-29T06:12:00.481Z,0.00
2019-01-29T06:13:00.403Z,0.00
2019-01-29T06:14:00.385Z,0.00
2019-01-29T06:15:00.378Z,0.00
2019-01-29T06:16:00.361Z,0.00
2019-01-29T06:17:00.346Z,0.00
2019-01-29T06:18:00.333Z,0.00
2019-01-29T06:19:00.322Z,0.00
2019-01-29T06:20:00.310Z,0.00
2019-01-29T06:21:00.297Z,0.00
2019-01-29T06:22:00.287Z,0.00
2019-01-29T06:23:00.273Z,0.00
2019-01-29T06:24:00.265Z,0.00
2019-01-29T06:25:00.258Z,0.00
2019-01-29T06:26:00.238Z,0.00
2019-01-29T06:27:00.218Z,0.00
2019-01-29T06:28:00.209Z,0.00
2019-01-29T06:29:00.198Z,0.00
2019-01-29T06:30:00.194Z,0.00
2019-01-29T06:31:00.174Z,0.00
2019-01-29T06:32:00.160Z,0.00
2019-01-29T06:33:00.148Z,0.00
2019-01-29T06:34:00.138Z,0.00
2019-01-29T06:35:00.327Z,0.00
2019-01-29T06:36:00.111Z,0.00
2019-01-29T06:37:00.096Z,0.00
2019-01-29T06:38:00.086Z,0.00
2019-01-29T06:39:00.071Z,0.00
2019-01-29T06:40:00.066Z,0.00
2019-01-29T06:41:00.047Z,0.00
2019-01-29T06:42:00.034Z,0.00
2019-01-29T06:43:00.024Z,0.00
2019-01-29T06:44:00.010Z,0.00
2019-01-29T06:45:00.000Z,0.00
2019-01-29T06:45:59.985Z,0.00
2019-01-29T06:46:59.970Z,0.00
2019-01-29T06:47:59.960Z,0.00
2019-01-29T06:48:59.947Z,0.00
2019-01-29T06:49:59.936Z,0.00
2019-01-29T06:50:59.921Z,5.63
2019-01-29T06:51:59.912Z,5.63
2019-01-29T06:52:59.895Z,5.63
2019-01-29T06:53:59.887Z,5.63
2019-01-29T06:54:59.871Z,5.63
2019-01-29T06:55:59.857Z,5.63
2019-01-29T06:56:59.848Z,5.63
2019-01-29T06:57:59.835Z,5.63
2019-01-29T06:58:59.821Z,5.63
2019-01-29T06:59:59.807Z,5.63
2019-01-29T07:00:59.794Z,5.63
2019-01-29T07:01:59.782Z,5.63
2019-01-29T07:02:59.775Z,5.63
2019-01-29T07:03:59.808Z,5.63
2019-01-29T07:04:59.746Z,5.63
2019-01-29T07:05:59.732Z,5.63
2019-01-29T07:06:59.720Z,5.63
2019-01-29T07:07:59.707Z,5.63
2019-01-29T07:08:59.693Z,5.63
2019-01-29T07:09:59.682Z,5.63
2019-01-29T07:10:59.681Z,5.63
2019-01-29T07:11:59.660Z,5.63
2019-01-29T07:12:59.651Z,5.63
2019-01-29T07:13:59.635Z,5.63
2019-01-29T07:14:59.619Z,5.63
2019-01-29T07:15:59.610Z,5.63
2019-01-29T07:16:59.595Z,5.63
2019-01-29T07:17:59.575Z,5.63
2019-01-29T07:18:59.567Z,5.63
2019-01-29T07:19:59.561Z,11.25
2019-01-29T07:20:59.541Z,11.25
2019-01-29T07:21:59.536Z,11.25
2019-01-29T07:22:59.518Z,11.25
2019-01-29T07:23:59.507Z,11.25
2019-01-29T07:24:59.493Z,11.25
2019-01-29T07:25:59.483Z,16.88
2019-01-29T07:26:59.468Z,16.88
2019-01-29T07:27:59.457Z,16.88
2019-01-29T07:28:59.445Z,16.88
2019-01-29T07:29:59.432Z,22.50
2019-01-29T07:30:59.420Z,22.50
2019-01-29T07:31:59.412Z,22.50
2019-01-29T07:32:59.395Z,22.50
2019-01-29T07:33:59.383Z,22.50
2019-01-29T07:34:59.371Z,22.50
2019-01-29T07:35:59.359Z,28.13
2019-01-29T07:36:59.354Z,28.13
2019-01-29T07:37:59.336Z,28.13
2019-01-29T07:38:59.320Z,33.75
2019-01-29T07:39:59.315Z,39.38
2019-01-29T07:40:59.305Z,45.00
2019-01-29T07:41:59.287Z,50.63
2019-01-29T07:42:59.268Z,50.63
2019-01-29T07:43:59.259Z,45.00
2019-01-29T07:44:59.251Z,39.38
2019-01-29T07:45:59.249Z,45.00
2019-01-29T07:46:59.224Z,45.00
2019-01-29T07:47:59.214Z,45.00
2019-01-29T07:48:59.202Z,50.63
2019-01-29T07:49:59.197Z,50.63
2019-01-29T07:50:59.174Z,50.63
2019-01-29T07:51:59.166Z,50.63
2019-01-29T07:52:59.150Z,50.63
2019-01-29T07:53:59.140Z,45.00
2019-01-29T07:54:59.126Z,45.00
2019-01-29T07:55:59.115Z,45.00
2019-01-29T07:56:59.104Z,45.00
2019-01-29T07:57:59.090Z,39.38
2019-01-29T07:58:59.078Z,39.38
2019-01-29T07:59:59.066Z,39.38
2019-01-29T08:00:59.054Z,45.00
2019-01-29T08:01:59.045Z,45.00
2019-01-29T08:02:59.030Z,45.00
2019-01-29T08:03:59.018Z,39.38
2019-01-29T08:04:59.007Z,39.38
2019-01-29T08:05:58.997Z,33.75
2019-01-29T08:06:58.983Z,33.75
2019-01-29T08:07:58.973Z,28.13
2019-01-29T08:08:58.960Z,22.50
2019-01-29T08:09:58.951Z,22.50
2019-01-29T08:10:58.935Z,28.13
2019-01-29T08:11:58.924Z,45.00
2019-01-29T08:12:58.912Z,45.00
2019-01-29T08:13:58.899Z,56.25
2019-01-29T08:14:58.887Z,56.25
2019-01-29T08:15:58.953Z,45.00
2019-01-29T08:16:58.869Z,33.75
2019-01-29T08:17:58.852Z,33.75
2019-01-29T08:18:58.848Z,33.75
2019-01-29T08:19:58.829Z,39.38
2019-01-29T08:20:58.817Z,39.38
2019-01-29T08:21:58.807Z,45.00
2019-01-29T08:22:58.791Z,45.00
2019-01-29T08:23:58.780Z,50.63
2019-01-29T08:25:01.736Z,50.63
2019-01-29T08:25:58.758Z,50.63
2019-01-29T08:26:58.747Z,45.00
2019-01-29T08:27:58.733Z,33.75
2019-01-29T08:28:58.723Z,33.75
2019-01-29T08:29:58.713Z,33.75
2019-01-29T08:30:58.696Z,39.38
2019-01-29T08:31:58.687Z,50.63
2019-01-29T08:32:58.677Z,56.25
2019-01-29T08:33:58.664Z,45.00
2019-01-29T08:34:58.654Z,33.75
2019-01-29T08:35:58.640Z,33.75
2019-01-29T08:36:58.630Z,45.00
2019-01-29T08:37:58.617Z,56.25
2019-01-29T08:38:58.607Z,84.38
2019-01-29T08:39:58.597Z,73.13
2019-01-29T08:40:58.584Z,95.63
2019-01-29T08:41:58.571Z,106.88
2019-01-29T08:42:58.628Z,129.38
2019-01-29T08:43:58.546Z,95.63
2019-01-29T08:44:58.529Z,73.13
2019-01-29T08:45:59.581Z,73.13
2019-01-29T08:46:58.514Z,73.13
2019-01-29T08:47:58.505Z,78.75
2019-01-29T08:48:58.489Z,78.75
2019-01-29T08:49:58.479Z,78.75
2019-01-29T08:50:58.467Z,73.13
2019-01-29T08:51:58.457Z,67.50
2019-01-29T08:52:58.447Z,73.13
2019-01-29T08:53:58.434Z,78.75
2019-01-29T08:54:58.426Z,67.50
2019-01-29T08:55:58.410Z,73.13
2019-01-29T08:56:58.399Z,84.38
2019-01-29T08:57:58.387Z,84.38
2019-01-29T08:58:58.376Z,101.25
2019-01-29T08:59:58.363Z,101.25
2019-01-29T09:00:58.355Z,95.63
2019-01-29T09:01:58.344Z,90.00
2019-01-29T09:02:58.330Z,78.75
2019-01-29T09:03:58.320Z,78.75
2019-01-29T09:04:58.310Z,95.63
2019-01-29T09:05:58.303Z,95.63
2019-01-29T09:06:58.288Z,90.00
2019-01-29T09:07:58.269Z,106.88
2019-01-29T09:08:58.263Z,95.63
2019-01-29T09:09:58.253Z,84.38
2019-01-29T09:10:58.243Z,101.25
2019-01-29T09:11:58.232Z,67.50
2019-01-29T09:12:58.218Z,90.00
2019-01-29T09:13:58.208Z,106.88
2019-01-29T09:14:58.197Z,123.75
2019-01-29T09:15:58.184Z,129.38
2019-01-29T09:16:58.172Z,112.50
2019-01-29T09:17:58.162Z,118.13
2019-01-29T09:18:58.149Z,101.25
2019-01-29T09:19:58.141Z,112.50
2019-01-29T09:20:58.129Z,168.75
2019-01-29T09:21:58.119Z,135.00
2019-01-29T09:22:58.108Z,135.00
2019-01-29T09:23:58.095Z,101.25
2019-01-29T09:24:58.083Z,123.75
2019-01-29T09:25:58.072Z,163.13
2019-01-29T09:26:58.062Z,168.75
2019-01-29T09:27:58.049Z,135.00
2019-01-29T09:28:58.041Z,129.38
2019-01-29T09:29:58.029Z,151.88
2019-01-29T09:30:58.017Z,140.63
2019-01-29T09:31:58.007Z,101.25
2019-01-29T09:32:58.001Z,118.13
2019-01-29T09:33:57.987Z,123.75
2019-01-29T09:34:57.973Z,101.25
2019-01-29T09:35:57.963Z,118.13
2019-01-29T09:36:57.957Z,129.38
2019-01-29T09:37:57.942Z,95.63
2019-01-29T09:38:57.931Z,90.00
2019-01-29T09:39:57.919Z,90.00
2019-01-29T09:40:57.910Z,84.38
2019-01-29T09:41:57.900Z,67.50
2019-01-29T09:42:57.887Z,67.50
2019-01-29T09:43:57.878Z,73.13
2019-01-29T09:44:57.866Z,67.50
2019-01-29T09:45:57.856Z,67.50
2019-01-29T09:46:57.843Z,73.13
2019-01-29T09:47:57.833Z,90.00
2019-01-29T09:48:57.824Z,78.75
2019-01-29T09:49:57.818Z,78.75
2019-01-29T09:50:57.801Z,67.50
2019-01-29T09:51:57.791Z,78.75
2019-01-29T09:52:57.783Z,123.75
2019-01-29T09:53:57.769Z,118.13
2019-01-29T09:54:57.759Z,106.88
2019-01-29T09:55:57.749Z,118.13
2019-01-29T09:56:57.731Z,112.50
2019-01-29T09:57:57.733Z,106.88
2019-01-29T09:58:57.716Z,101.25
2019-01-29T09:59:57.706Z,101.25
2019-01-29T10:00:57.700Z,106.88
2019-01-29T10:01:57.689Z,112.50
2019-01-29T10:02:57.674Z,106.88
2019-01-29T10:03:57.664Z,90.00
2019-01-29T10:04:57.666Z,101.25
2019-01-29T10:05:57.636Z,90.00
2019-01-29T10:06:57.632Z,95.63
2019-01-29T10:07:57.627Z,84.38
2019-01-29T10:08:57.611Z,90.00
2019-01-29T10:09:57.605Z,84.38
2019-01-29T10:10:57.592Z,73.13
2019-01-29T10:11:57.580Z,78.75
2019-01-29T10:12:57.568Z,78.75
2019-01-29T10:13:57.560Z,84.38
2019-01-29T10:14:57.548Z,73.13
2019-01-29T10:15:57.536Z,78.75
2019-01-29T10:16:57.527Z,67.50
2019-01-29T10:17:57.517Z,90.00
2019-01-29T10:18:57.507Z,78.75
2019-01-29T10:20:02.472Z,84.38
2019-01-29T10:20:57.487Z,101.25
2019-01-29T10:21:57.476Z,90.00
2019-01-29T10:22:57.465Z,73.13
2019-01-29T10:23:57.455Z,67.50
2019-01-29T10:24:57.444Z,84.38
2019-01-29T10:25:57.434Z,73.13
2019-01-29T10:26:57.424Z,67.50
2019-01-29T10:27:57.413Z,84.38
2019-01-29T10:28:57.403Z,90.00
2019-01-29T10:29:57.395Z,90.00
2019-01-29T10:30:57.381Z,84.38
2019-01-29T10:31:57.372Z,95.63
2019-01-29T10:32:57.361Z,90.00
2019-01-29T10:33:57.353Z,84.38
2019-01-29T10:34:57.340Z,90.00
2019-01-29T10:35:57.329Z,90.00
2019-01-29T10:36:57.424Z,78.75
2019-01-29T10:37:57.309Z,73.13
2019-01-29T10:38:57.302Z,78.75
2019-01-29T10:39:57.300Z,78.75
2019-01-29T10:40:57.281Z,73.13
2019-01-29T10:41:57.266Z,67.50
2019-01-29T10:42:57.257Z,67.50
2019-01-29T10:43:57.245Z,61.88
2019-01-29T10:44:57.239Z,73.13
2019-01-29T10:45:57.227Z,67.50
2019-01-29T10:46:57.213Z,61.88
2019-01-29T10:47:57.203Z,78.75
2019-01-29T10:48:57.193Z,90.00
2019-01-29T10:49:57.184Z,67.50
2019-01-29T10:50:57.176Z,67.50
2019-01-29T10:51:57.164Z,78.75
2019-01-29T10:52:57.152Z,84.38
2019-01-29T10:53:57.145Z,61.88
2019-01-29T10:54:58.074Z,67.50
2019-01-29T10:55:57.122Z,90.00
2019-01-29T10:56:57.110Z,90.00
2019-01-29T10:57:57.099Z,112.50
2019-01-29T10:58:57.089Z,106.88
2019-01-29T10:59:57.081Z,106.88
2019-01-29T11:00:57.077Z,90.00
2019-01-29T11:01:57.059Z,101.25
2019-01-29T11:02:57.048Z,101.25
2019-01-29T11:03:57.038Z,106.88
2019-01-29T11:04:57.390Z,90.00
2019-01-29T11:05:57.092Z,101.25
2019-01-29T11:06:57.006Z,101.25
2019-01-29T11:07:57.000Z,101.25
2019-01-29T11:08:56.986Z,78.75
2019-01-29T11:09:56.974Z,78.75
2019-01-29T11:10:56.964Z,73.13
2019-01-29T11:11:56.952Z,90.00
2019-01-29T11:12:56.944Z,101.25
2019-01-29T11:13:56.932Z,101.25
2019-01-29T11:14:56.921Z,106.88
2019-01-29T11:15:56.913Z,101.25
2019-01-29T11:16:56.904Z,78.75
2019-01-29T11:17:56.893Z,78.75
2019-01-29T11:19:03.149Z,84.38
2019-01-29T11:19:56.870Z,106.88
2019-01-29T11:20:56.862Z,95.63
2019-01-29T11:21:56.852Z,101.25
2019-01-29T11:22:56.842Z,112.50
2019-01-29T11:23:56.832Z,95.63
2019-01-29T11:24:56.827Z,73.13
2019-01-29T11:25:56.813Z,61.88
2019-01-29T11:26:56.799Z,61.88
2019-01-29T11:27:56.791Z,61.88
2019-01-29T11:28:56.781Z,73.13
2019-01-29T11:29:56.773Z,84.38
2019-01-29T11:30:56.758Z,95.63
2019-01-29T11:31:56.747Z,123.75
2019-01-29T11:32:56.741Z,123.75
2019-01-29T11:33:56.729Z,95.63
2019-01-29T11:34:56.719Z,73.13
2019-01-29T11:35:56.709Z,67.50
2019-01-29T11:36:56.700Z,78.75
2019-01-29T11:37:56.687Z,78.75
2019-01-29T11:38:56.676Z,73.13
2019-01-29T11:39:56.667Z,78.75
2019-01-29T11:40:56.662Z,78.75
2019-01-29T11:41:56.647Z,73.13
2019-01-29T11:42:56.635Z,67.50
2019-01-29T11:43:56.626Z,67.50
2019-01-29T11:44:56.617Z,73.13
2019-01-29T11:45:56.607Z,73.13
2019-01-29T11:46:56.595Z,95.63
2019-01-29T11:47:56.588Z,95.63
2019-01-29T11:48:56.576Z,95.63
2019-01-29T11:49:56.565Z,106.88
2019-01-29T11:50:56.555Z,101.25
2019-01-29T11:51:56.546Z,123.75
2019-01-29T11:52:56.538Z,112.50
2019-01-29T11:53:56.524Z,123.75
2019-01-29T11:54:56.515Z,106.88
2019-01-29T11:56:04.057Z,106.88
2019-01-29T11:56:56.493Z,101.25
2019-01-29T11:57:56.488Z,118.13
2019-01-29T11:58:56.475Z,123.75
2019-01-29T11:59:56.465Z,140.63
2019-01-29T12:00:56.456Z,129.38
2019-01-29T12:01:56.445Z,129.38
2019-01-29T12:02:56.434Z,151.88
2019-01-29T12:03:56.427Z,151.88
2019-01-29T12:04:56.415Z,151.88
2019-01-29T12:05:56.406Z,174.38
2019-01-29T12:06:56.395Z,174.38
2019-01-29T12:07:56.385Z,157.50
2019-01-29T12:08:56.377Z,151.88
2019-01-29T12:09:56.599Z,191.25
2019-01-29T12:10:56.355Z,196.88
2019-01-29T12:11:56.346Z,191.25
2019-01-29T12:12:56.346Z,163.13
2019-01-29T12:13:56.329Z,151.88
2019-01-29T12:14:56.321Z,146.25
2019-01-29T12:15:56.306Z,135.00
2019-01-29T12:16:56.297Z,135.00
2019-01-29T12:17:56.287Z,151.88
2019-01-29T12:18:56.276Z,174.38
2019-01-29T12:19:56.269Z,174.38
2019-01-29T12:20:56.258Z,174.38
2019-01-29T12:21:56.250Z,163.13
2019-01-29T12:22:56.243Z,168.75
2019-01-29T12:23:56.231Z,146.25
2019-01-29T12:24:56.221Z,146.25
2019-01-29T12:25:56.212Z,157.50
2019-01-29T12:26:56.200Z,163.13
2019-01-29T12:27:56.191Z,168.75
2019-01-29T12:28:56.181Z,140.63
2019-01-29T12:29:56.172Z,135.00
2019-01-29T12:30:56.162Z,146.25
2019-01-29T12:31:56.155Z,151.88
2019-01-29T12:32:56.144Z,151.88
2019-01-29T12:33:56.132Z,140.63
2019-01-29T12:34:56.127Z,140.63
2019-01-29T12:35:56.113Z,157.50
2019-01-29T12:36:56.105Z,174.38
2019-01-29T12:37:56.094Z,146.25
2019-01-29T12:38:56.086Z,151.88
2019-01-29T12:39:56.075Z,146.25
2019-01-29T12:40:56.067Z,129.38
2019-01-29T12:41:56.057Z,135.00
2019-01-29T12:42:56.049Z,129.38
2019-01-29T12:43:56.036Z,118.13
2019-01-29T12:44:56.027Z,123.75
2019-01-29T12:45:56.018Z,123.75
2019-01-29T12:46:56.010Z,118.13
2019-01-29T12:47:55.998Z,140.63
2019-01-29T12:48:55.988Z,135.00
2019-01-29T12:49:55.978Z,129.38
2019-01-29T12:50:55.968Z,135.00
2019-01-29T12:51:55.959Z,135.00
2019-01-29T12:52:55.949Z,135.00
2019-01-29T12:53:55.943Z,135.00
2019-01-29T12:54:55.934Z,157.50
2019-01-29T12:55:55.927Z,140.63
2019-01-29T12:56:55.928Z,140.63
2019-01-29T12:57:55.902Z,146.25
2019-01-29T12:58:55.891Z,180.00
2019-01-29T12:59:55.883Z,135.00
2019-01-29T13:00:55.875Z,112.50
2019-01-29T13:01:55.865Z,112.50